• Join FlightAware (Why Join?)
  • Login
  • US Flag 
11:40PM EDT


 

Airport Tracker/Info


-or-


 

Live Flight TrackerFlight Track Log ✈ EGF4039 ✈ 12-Apr-2013 ✈ KALO - KORD

Flight Track Log - Related Links

Times and Time Zones

All times are in EDT time to prevent confusion due to time zone crossing. See the EGF4039 flight status page for this flight to view local times or setup timezone preferences in your user account.

Time Position Orientation Groundspeed Altitude Reporting Facility
EDT Latitude Longitude Course Direction KTS MPH feet Rate Location/Type
05:10PM 42.5764 -92.4275 97° East 162 186 2,400  Level Chicago Center
05:11PM 42.6119 -92.3831 43° Northeast 244 281 5,000 2,280 Climbing Chicago Center
05:12PM 42.5972 -92.2828 101° East 263 303 7,200 2,520 Climbing Chicago Center
05:13PM 42.5806 -92.1489 100° East 288 331 10,300 1,980 Climbing Chicago Center
05:14PM 42.5661 -92.0233 99° East 315 362 11,400 1,200 Climbing Chicago Center
05:15PM 42.4808 -91.6064 97° East  Level FlightAware Approximate
05:15PM 42.5494 -91.8817 99° East 356 410 12,800  Level Chicago Center
05:16PM 42.5319 -91.7367 99° East 389 448 14,200 1,500 Climbing Chicago Center
05:17PM 42.5111 -91.5611 99° East 401 461 15,900 1,500 Climbing Chicago Center
05:18PM 42.4925 -91.4117 100° East 408 470 17,300 1,440 Climbing Chicago Center
05:19PM 42.4717 -91.2617 101° East 412 474 18,900 1,440 Climbing Chicago Center
05:20PM 42.4533 -91.1056 99° East 421 484 20,300 1,380 Climbing Chicago Center
05:21PM 42.4319 -90.9464 100° East 432 497 21,800 1,200 Climbing Chicago Center
05:22PM 42.4064 -90.7500 100° East 444 511 22,900 540 Climbing Chicago Center
05:23PM 42.4153 -90.5753 86° East 475 547 23,000  Climbing Chicago Center
05:24PM 42.4322 -90.4000 82° East 476 548 23,000  Level Chicago Center
05:26PM 42.4489 -90.2469 82° East 417 480 23,000 -540 Level Chicago Center
05:27PM 42.4667 -90.0672 82° East 409 471 21,900 -1,020 Descending Chicago Center
05:28PM 42.4817 -89.9211 82° East 397 457 21,000 -960 Descending Chicago Center
05:29PM 42.4939 -89.7778 83° East 386 444 20,000 -1,020 Descending Chicago Center
05:30PM 42.5081 -89.6369 82° East 379 436 19,000 -1,080 Descending Chicago Center
05:31PM 42.5214 -89.5000 82° East 370 426 17,800 -1,140 Descending Chicago Center
05:32PM 42.5361 -89.3400 83° East 368 423 16,700 -1,020 Descending Chicago Center
05:33PM 42.5494 -89.2025 82° East 369 425 15,800 -960 Descending Chicago Center
05:34PM 42.5411 -89.0497 94° East 407 468 14,800 -1,200 Descending Chicago Center
05:35PM 42.4994 -88.9092 112° Southeast 405 466 13,400 -1,500 Descending Chicago Center
05:36PM 42.4575 -88.7719 112° Southeast 397 457 11,700 -1,620 Descending Chicago Center
05:37PM 42.4111 -88.6161 112° Southeast 386 444 10,100 -840 Descending Chicago Center
05:38PM 42.3706 -88.4878 113° Southeast 376 433 10,000 -60 Descending Chicago Center
05:39PM 42.3200 -88.3492 116° Southeast 377 434 10,000  Level Chicago Center
05:40PM 42.2533 -88.2428 130° Southeast 371 427 10,000  Level Chicago Center
05:41PM 42.1858 -88.1325 130° Southeast 379 436 10,000  Level Chicago Center
05:42PM 42.1086 -88.0447 140° Southeast 366 421 10,000 -300 Level Chicago Center
05:43PM 42.1000 -87.9833 101° East 317 365 9,600 -1,260 Descending Chicago TRACON
05:44PM 42.0833 -87.8667 101° East 314 361 8,200 -1,380 Descending Chicago TRACON
05:45PM 42.1000 -87.7500 79° East 291 335 6,900 -1,500 Descending Chicago TRACON
05:46PM 42.0833 -87.6500 103° East 269 310 5,200 -1,500 Descending Chicago TRACON
05:47PM 42.0833 -87.5500 90° East 283 326 4,000 -600 Descending Chicago TRACON
05:48PM 42.0833 -87.4500 90° East 282 325 4,000  Level Chicago TRACON
05:49PM 42.0500 -87.3833 124° Southeast 244 281 4,000  Level Chicago TRACON
05:50PM 42.0000 -87.4167 206° Southwest 201 231 4,000  Level Chicago TRACON
05:51PM 42.0000 -87.4833 270° West 194 223 4,000  Level Chicago TRACON
05:52PM 42.0000 -87.5500 270° West 160 184 4,000  Level Chicago TRACON
05:53PM 42.0000 -87.6167 270° West 175 201 4,000  Level Chicago TRACON
05:54PM 42.0000 -87.6833 270° West 165 190 4,000 -480 Level Chicago TRACON
05:55PM 42.0000 -87.7333 270° West 166 191 3,100 -900 Descending Chicago TRACON